createdAt,value
2018-02-10T00:01:05.315Z,15.07
2018-02-10T00:03:34.565Z,14.13
2018-02-10T00:06:03.849Z,17.37
2018-02-10T00:08:33.101Z,14.50
2018-02-10T00:11:02.349Z,16.50
2018-02-10T00:13:31.624Z,15.40
2018-02-10T00:16:00.887Z,14.77
2018-02-10T00:18:30.151Z,14.77
2018-02-10T00:20:59.529Z,15.53
2018-02-10T00:23:29.431Z,15.30
2018-02-10T00:26:00.226Z,14.57
2018-02-10T00:28:29.460Z,16.10
2018-02-10T00:30:58.711Z,16.70
2018-02-10T00:33:27.977Z,13.03
2018-02-10T00:35:57.231Z,16.20
2018-02-10T00:38:26.474Z,14.80
2018-02-10T00:40:55.828Z,16.50
2018-02-10T00:43:25.174Z,14.00
2018-02-10T00:45:54.417Z,15.00
2018-02-10T00:48:23.817Z,15.33
2018-02-10T00:50:53.076Z,14.50
2018-02-10T00:53:22.316Z,15.73
2018-02-10T00:55:51.585Z,14.97
2018-02-10T00:58:20.898Z,17.30
2018-02-10T01:00:50.169Z,15.37
2018-02-10T01:03:19.438Z,15.10
2018-02-10T01:05:48.690Z,14.30
2018-02-10T01:08:17.956Z,15.43
2018-02-10T01:10:47.219Z,14.10
2018-02-10T01:13:16.458Z,17.53
2018-02-10T01:15:45.718Z,13.60
2018-02-10T01:18:14.969Z,14.30
2018-02-10T01:20:44.237Z,16.33
2018-02-10T01:23:13.482Z,15.00
2018-02-10T01:25:42.749Z,13.30
2018-02-10T01:28:11.997Z,14.93
2018-02-10T01:30:41.260Z,15.17
2018-02-10T01:33:10.533Z,13.77
2018-02-10T01:35:40.011Z,15.30
2018-02-10T01:38:09.295Z,15.17
2018-02-10T01:40:38.541Z,13.00
2018-02-10T01:43:07.837Z,16.80
2018-02-10T01:45:37.105Z,14.50
2018-02-10T01:48:06.385Z,14.97
2018-02-10T01:50:35.651Z,15.50
2018-02-10T01:53:04.926Z,15.47
2018-02-10T01:55:34.168Z,14.50
2018-02-10T01:58:03.434Z,14.33
2018-02-10T02:00:32.709Z,15.17
2018-02-10T02:03:01.957Z,14.40
2018-02-10T02:05:31.210Z,15.67
2018-02-10T02:08:00.474Z,15.23
2018-02-10T02:10:29.747Z,16.87
2018-02-10T02:12:58.989Z,13.40
2018-02-10T02:15:28.264Z,15.63
2018-02-10T02:17:57.521Z,17.33
2018-02-10T02:20:26.777Z,16.20
2018-02-10T02:22:56.033Z,16.03
2018-02-10T02:25:26.054Z,14.33
2018-02-10T02:27:55.315Z,16.23
2018-02-10T02:30:24.570Z,15.27
2018-02-10T02:32:54.605Z,15.10
2018-02-10T02:35:23.875Z,17.43
2018-02-10T02:37:53.120Z,15.20
2018-02-10T02:40:22.371Z,15.80
2018-02-10T02:42:52.394Z,14.90
2018-02-10T02:45:21.641Z,15.13
2018-02-10T02:47:50.884Z,15.57
2018-02-10T02:50:20.914Z,15.07
2018-02-10T02:52:50.169Z,15.00
2018-02-10T02:55:19.443Z,14.63
2018-02-10T02:57:48.698Z,16.50
2018-02-10T03:00:18.894Z,16.90
2018-02-10T03:02:48.159Z,16.80
2018-02-10T03:05:17.418Z,16.00
2018-02-10T03:07:46.681Z,14.40
2018-02-10T03:10:15.940Z,15.30
2018-02-10T03:12:45.213Z,13.53
2018-02-10T03:15:15.993Z,16.73
2018-02-10T03:17:45.268Z,16.50
2018-02-10T03:20:14.518Z,15.47
2018-02-10T03:22:43.762Z,15.13
2018-02-10T03:25:13.786Z,15.07
2018-02-10T03:27:43.049Z,15.93
2018-02-10T03:30:12.321Z,16.00
2018-02-10T03:32:41.566Z,16.93
2018-02-10T03:35:10.824Z,15.20
2018-02-10T03:37:40.904Z,17.30
2018-02-10T03:40:10.183Z,16.23
2018-02-10T03:42:39.429Z,17.80
2018-02-10T03:45:08.686Z,14.80
2018-02-10T03:47:37.920Z,15.10
2018-02-10T03:50:07.182Z,15.93
2018-02-10T03:52:36.472Z,16.40
2018-02-10T03:55:05.721Z,13.43
2018-02-10T03:57:34.995Z,16.40
2018-02-10T04:00:04.234Z,15.00
2018-02-10T04:02:33.533Z,16.83
2018-02-10T04:05:02.769Z,14.07
2018-02-10T04:07:32.040Z,15.87
2018-02-10T04:10:01.275Z,15.20
2018-02-10T04:12:30.560Z,17.67
2018-02-10T04:14:59.821Z,19.00
2018-02-10T04:17:29.049Z,17.50
2018-02-10T04:19:58.326Z,15.50
2018-02-10T04:22:27.753Z,16.37
2018-02-10T04:24:57.009Z,15.80
2018-02-10T04:27:27.522Z,17.70
2018-02-10T04:29:58.415Z,16.10
2018-02-10T04:32:27.776Z,15.10
2018-02-10T04:34:57.009Z,15.20
2018-02-10T04:37:26.280Z,13.93
2018-02-10T04:39:56.489Z,16.60
2018-02-10T04:42:25.790Z,16.33
2018-02-10T04:44:55.042Z,14.87
2018-02-10T04:47:24.312Z,16.50
2018-02-10T04:49:53.542Z,17.37
2018-02-10T04:52:22.801Z,19.53
2018-02-10T04:54:52.051Z,16.27
2018-02-10T04:57:22.579Z,15.43
2018-02-10T04:59:51.962Z,15.67
2018-02-10T05:02:21.269Z,16.50
2018-02-10T05:04:50.532Z,16.57
2018-02-10T05:07:19.769Z,14.63
2018-02-10T05:09:49.034Z,16.77
2018-02-10T05:12:18.266Z,18.30
2018-02-10T05:14:47.524Z,15.60
2018-02-10T05:17:16.756Z,17.10
2018-02-10T05:19:46.787Z,14.63
2018-02-10T05:22:16.054Z,15.20
2018-02-10T05:24:45.310Z,16.90
2018-02-10T05:27:14.565Z,16.07
2018-02-10T05:29:43.815Z,14.80
2018-02-10T05:32:13.074Z,15.67
2018-02-10T05:34:43.122Z,15.63
2018-02-10T05:37:12.365Z,16.70
2018-02-10T05:39:41.617Z,16.97
2018-02-10T05:42:10.877Z,17.30
2018-02-10T05:44:40.128Z,15.20
2018-02-10T05:47:09.397Z,17.23
2018-02-10T05:49:39.433Z,17.30
2018-02-10T05:52:08.653Z,15.60
2018-02-10T05:54:37.905Z,17.33
2018-02-10T05:57:07.921Z,17.47
2018-02-10T05:59:38.730Z,15.87
2018-02-10T06:02:07.956Z,15.93
2018-02-10T06:04:37.356Z,16.73
2018-02-10T06:07:06.613Z,19.33
2018-02-10T06:09:35.860Z,16.27
2018-02-10T06:12:05.097Z,15.87
2018-02-10T06:14:34.353Z,15.27
2018-02-10T06:17:03.593Z,18.00
2018-02-10T06:19:32.899Z,18.00
2018-02-10T06:22:02.141Z,17.00
2018-02-10T06:24:31.385Z,15.73
2018-02-10T06:27:01.104Z,16.23
2018-02-10T06:29:30.343Z,14.33
2018-02-10T06:31:59.589Z,17.03
2018-02-10T06:34:28.853Z,19.07
2018-02-10T06:36:58.210Z,16.70
2018-02-10T06:39:27.472Z,17.37
2018-02-10T06:41:56.767Z,20.50
2018-02-10T06:44:26.025Z,18.30
2018-02-10T06:46:55.292Z,19.00
2018-02-10T06:49:25.310Z,18.20
2018-02-10T06:51:54.572Z,18.20
2018-02-10T06:54:23.824Z,19.13
2018-02-10T06:56:53.243Z,18.20
2018-02-10T06:59:22.719Z,18.53
2018-02-10T07:01:51.973Z,16.27
2018-02-10T07:04:21.224Z,17.17
2018-02-10T07:06:51.254Z,18.13
2018-02-10T07:09:20.500Z,17.50
2018-02-10T07:11:49.755Z,17.00
2018-02-10T07:14:19.001Z,18.03
2018-02-10T07:16:48.255Z,18.57
2018-02-10T07:19:17.501Z,20.40
2018-02-10T07:21:46.739Z,16.73
2018-02-10T07:24:16.865Z,18.77
2018-02-10T07:26:46.900Z,16.57
2018-02-10T07:29:16.162Z,20.93
2018-02-10T07:31:45.414Z,20.40
2018-02-10T07:34:14.768Z,16.83
2018-02-10T07:36:44.042Z,21.40
2018-02-10T07:39:13.287Z,15.97
2018-02-10T07:41:43.289Z,20.67
2018-02-10T07:44:12.557Z,19.00
2018-02-10T07:46:41.785Z,21.23
2018-02-10T07:49:11.029Z,19.27
2018-02-10T07:51:40.284Z,19.80
2018-02-10T07:54:09.548Z,23.27
2018-02-10T07:56:38.785Z,19.33
2018-02-10T07:59:08.053Z,19.40
2018-02-10T08:01:37.279Z,20.23
2018-02-10T08:04:06.547Z,20.43
2018-02-10T08:06:35.815Z,19.63
2018-02-10T08:09:05.857Z,19.50
2018-02-10T08:11:35.107Z,23.38
2018-02-10T08:14:04.369Z,21.50
2018-02-10T08:16:33.637Z,21.10
2018-02-10T08:19:03.648Z,18.83
2018-02-10T08:21:32.900Z,19.37
2018-02-10T08:24:02.140Z,19.00
2018-02-10T08:26:31.400Z,18.20
2018-02-10T08:29:00.663Z,18.10
2018-02-10T08:31:29.901Z,18.00
2018-02-10T08:33:59.192Z,18.00
2018-02-10T08:36:28.422Z,22.50
2018-02-10T08:38:57.739Z,20.17
2018-02-10T08:41:26.946Z,19.63
2018-02-10T08:43:56.259Z,19.87
2018-02-10T08:46:25.501Z,18.40
2018-02-10T08:48:54.765Z,20.10
2018-02-10T08:51:24.778Z,18.77
2018-02-10T08:53:54.017Z,19.10
2018-02-10T08:56:23.276Z,17.93
2018-02-10T08:58:53.381Z,17.97
2018-02-10T09:01:22.620Z,17.07
2018-02-10T09:03:51.899Z,17.10
2018-02-10T09:06:21.139Z,16.23
2018-02-10T09:08:50.510Z,17.60
2018-02-10T09:11:19.806Z,16.80
2018-02-10T09:13:49.844Z,16.23
2018-02-10T09:16:19.113Z,15.80
2018-02-10T09:18:48.363Z,14.60
2018-02-10T09:21:19.174Z,15.60
2018-02-10T09:23:48.445Z,15.90
2018-02-10T09:26:17.680Z,14.87
2018-02-10T09:28:46.966Z,17.73
2018-02-10T09:31:16.980Z,15.13
2018-02-10T09:33:46.419Z,15.27
2018-02-10T09:36:16.423Z,14.37
2018-02-10T09:38:45.685Z,15.40
2018-02-10T09:41:16.449Z,15.43
2018-02-10T09:43:46.506Z,12.87
2018-02-10T09:46:15.755Z,14.03
2018-02-10T09:48:45.190Z,13.57
2018-02-10T09:51:14.449Z,14.47
2018-02-10T09:53:43.685Z,12.27
2018-02-10T09:56:12.981Z,12.40
2018-02-10T09:58:43.033Z,14.67
2018-02-10T10:01:13.129Z,14.13
2018-02-10T10:03:42.677Z,14.30
2018-02-10T10:06:11.948Z,14.27
2018-02-10T10:08:41.194Z,14.10
2018-02-10T10:11:10.484Z,13.33
2018-02-10T10:13:39.748Z,13.97
2018-02-10T10:16:08.989Z,12.17
2018-02-10T10:18:38.246Z,12.77
2018-02-10T10:21:07.512Z,12.57
2018-02-10T10:23:37.513Z,13.57
2018-02-10T10:26:06.781Z,13.37
2018-02-10T10:28:36.046Z,11.67
2018-02-10T10:31:05.305Z,13.10
2018-02-10T10:33:34.555Z,12.20
2018-02-10T10:36:04.575Z,11.00
2018-02-10T10:38:33.829Z,12.77
2018-02-10T10:41:03.110Z,13.13
2018-02-10T10:43:32.362Z,12.10
2018-02-10T10:46:02.448Z,12.93
2018-02-10T10:48:31.665Z,13.37
2018-02-10T10:51:01.714Z,12.23
2018-02-10T10:53:31.805Z,12.07
2018-02-10T10:56:01.061Z,13.03
2018-02-10T10:58:30.309Z,10.53
2018-02-10T11:00:59.567Z,13.20
2018-02-10T11:03:28.842Z,12.70
2018-02-10T11:05:58.913Z,12.17
2018-02-10T11:08:28.152Z,12.23
2018-02-10T11:10:57.426Z,12.20
2018-02-10T11:13:26.726Z,11.97
2018-02-10T11:15:55.992Z,11.63
2018-02-10T11:18:25.238Z,12.10
2018-02-10T11:20:54.513Z,11.77
2018-02-10T11:23:23.759Z,12.87
2018-02-10T11:25:53.033Z,13.23
2018-02-10T11:28:22.326Z,12.87
2018-02-10T11:30:51.511Z,11.63
2018-02-10T11:33:21.533Z,11.70
2018-02-10T11:35:50.794Z,13.50
2018-02-10T11:38:20.252Z,13.13
2018-02-10T11:40:49.488Z,11.80
2018-02-10T11:43:18.746Z,12.27
2018-02-10T11:45:48.011Z,11.87
2018-02-10T11:48:17.292Z,12.83
2018-02-10T11:50:46.553Z,11.23
2018-02-10T11:53:16.563Z,10.50
2018-02-10T11:55:45.836Z,12.50
2018-02-10T11:58:15.077Z,10.60
2018-02-10T12:00:45.112Z,10.93
2018-02-10T12:03:14.356Z,9.97
2018-02-10T12:05:43.635Z,9.47
2018-02-10T12:08:13.617Z,10.50
2018-02-10T12:10:42.884Z,8.57
2018-02-10T12:13:12.110Z,6.70
2018-02-10T12:15:41.496Z,6.03
2018-02-10T12:18:10.831Z,7.07
2018-02-10T12:20:40.065Z,8.73
2018-02-10T12:23:09.316Z,5.20
2018-02-10T12:25:39.313Z,5.43
2018-02-10T12:28:08.570Z,6.60
2018-02-10T12:30:37.823Z,6.27
2018-02-10T12:33:07.834Z,5.70
2018-02-10T12:35:37.086Z,6.70
2018-02-10T12:38:06.333Z,6.50
2018-02-10T12:40:36.388Z,5.50
2018-02-10T12:43:05.644Z,6.20
2018-02-10T12:45:36.390Z,5.67
2018-02-10T12:48:11.053Z,5.40
2018-02-10T12:50:40.326Z,5.07
2018-02-10T12:53:09.636Z,5.30
2018-02-10T12:55:38.845Z,6.63
2018-02-10T12:58:08.089Z,5.07
2018-02-10T13:00:37.349Z,6.77
2018-02-10T13:03:06.597Z,4.57
2018-02-10T13:05:35.999Z,5.30
2018-02-10T13:08:05.252Z,5.93
2018-02-10T13:10:34.617Z,5.07
2018-02-10T13:13:03.861Z,7.33
2018-02-10T13:15:33.104Z,4.93
2018-02-10T13:18:02.373Z,4.17
2018-02-10T13:20:31.614Z,7.13
2018-02-10T13:23:00.857Z,5.60
2018-02-10T13:25:30.231Z,5.30
2018-02-10T13:28:00.453Z,5.60
2018-02-10T13:30:29.705Z,6.10
2018-02-10T13:32:59.045Z,7.80
2018-02-10T13:35:28.315Z,4.93
2018-02-10T13:37:58.249Z,5.30
2018-02-10T13:40:27.448Z,5.80
2018-02-10T13:42:56.738Z,4.53
2018-02-10T13:45:25.962Z,8.40
2018-02-10T13:47:56.877Z,5.57
2018-02-10T13:50:26.102Z,5.10
2018-02-10T13:52:55.341Z,5.53
2018-02-10T13:55:24.590Z,9.70
2018-02-10T13:57:54.797Z,10.80
2018-02-10T14:00:24.141Z,11.33
2018-02-10T14:02:54.237Z,8.27
2018-02-10T14:05:23.558Z,5.93
2018-02-10T14:07:52.854Z,4.87
2018-02-10T14:10:22.129Z,5.07
2018-02-10T14:12:51.356Z,7.17
2018-02-10T14:15:21.392Z,7.40
2018-02-10T14:17:51.493Z,6.40
2018-02-10T14:20:20.744Z,6.30
2018-02-10T14:22:49.992Z,6.60
2018-02-10T14:25:19.238Z,7.40
2018-02-10T14:27:48.462Z,7.23
2018-02-10T14:30:17.724Z,6.87
2018-02-10T14:32:46.967Z,5.73
2018-02-10T14:35:16.209Z,6.70
2018-02-10T14:37:46.217Z,6.03
2018-02-10T14:40:15.474Z,6.40
2018-02-10T14:42:44.740Z,7.33
2018-02-10T14:45:14.766Z,6.30
2018-02-10T14:47:44.035Z,6.27
2018-02-10T14:50:13.277Z,5.47
2018-02-10T14:52:42.522Z,5.90
2018-02-10T14:55:11.961Z,6.97
2018-02-10T14:57:41.145Z,5.00
2018-02-10T15:00:11.159Z,6.60
2018-02-10T15:02:40.475Z,7.40
2018-02-10T15:05:09.709Z,9.53
2018-02-10T15:07:39.017Z,7.17
2018-02-10T15:10:08.209Z,8.70
2018-02-10T15:12:37.489Z,8.43
2018-02-10T15:15:07.501Z,10.40
2018-02-10T15:17:36.758Z,8.60
2018-02-10T15:20:06.219Z,7.47
2018-02-10T15:22:36.308Z,7.63
2018-02-10T15:25:05.572Z,7.90
2018-02-10T15:27:34.810Z,9.97
2018-02-10T15:30:21.665Z,12.33
2018-02-10T15:33:08.606Z,29.00
2018-02-10T15:35:37.831Z,13.47
2018-02-10T15:38:07.087Z,12.20
2018-02-10T15:40:37.116Z,8.60
2018-02-10T15:43:07.123Z,8.53
2018-02-10T15:45:36.369Z,8.10
2018-02-10T15:48:05.630Z,6.87
2018-02-10T15:50:34.852Z,7.10
2018-02-10T15:53:04.114Z,7.30
2018-02-10T15:55:33.336Z,7.20
2018-02-10T15:58:02.602Z,7.07
2018-02-10T16:00:31.861Z,7.00
2018-02-10T16:03:01.102Z,6.40
2018-02-10T16:05:30.334Z,6.00
2018-02-10T16:07:59.601Z,9.00
2018-02-10T16:10:28.828Z,7.60
2018-02-10T16:12:58.090Z,16.90
2018-02-10T16:15:27.345Z,10.00
2018-02-10T16:17:56.614Z,13.03
2018-02-10T16:20:25.898Z,8.90
2018-02-10T16:22:55.302Z,8.07
2018-02-10T16:25:24.575Z,14.77
2018-02-10T16:27:53.806Z,10.20
2018-02-10T16:30:23.290Z,5.77
2018-02-10T16:32:53.319Z,6.10
2018-02-10T16:35:22.600Z,4.70
2018-02-10T16:37:51.890Z,8.97
2018-02-10T16:40:21.115Z,3.33
2018-02-10T16:42:51.158Z,5.73
2018-02-10T16:45:20.421Z,5.13
2018-02-10T16:47:49.757Z,7.82
2018-02-10T16:50:19.083Z,8.97
2018-02-10T16:52:48.336Z,9.77
2018-02-10T16:55:18.337Z,11.07
2018-02-10T16:57:47.766Z,13.03
2018-02-10T17:00:17.784Z,14.30
2018-02-10T17:02:47.685Z,12.40
2018-02-10T17:05:18.425Z,11.17
2018-02-10T17:07:47.721Z,12.20
2018-02-10T17:10:16.955Z,13.60
2018-02-10T17:12:46.187Z,14.47
2018-02-10T17:15:15.512Z,13.13
2018-02-10T17:17:44.764Z,11.03
2018-02-10T17:20:14.033Z,10.67
2018-02-10T17:22:43.311Z,10.17
2018-02-10T17:25:12.655Z,8.10
2018-02-10T17:27:41.920Z,12.17
2018-02-10T17:30:11.173Z,9.80
2018-02-10T17:32:40.456Z,11.60
2018-02-10T17:35:09.697Z,9.87
2018-02-10T17:37:38.994Z,11.83
2018-02-10T17:40:08.337Z,11.40
2018-02-10T17:42:37.604Z,10.97
2018-02-10T17:45:06.878Z,12.03
2018-02-10T17:47:36.128Z,11.57
2018-02-10T17:50:05.374Z,11.30
2018-02-10T17:52:34.640Z,10.93
2018-02-10T17:55:03.910Z,11.50
2018-02-10T17:57:33.147Z,10.97
2018-02-10T18:00:02.458Z,11.87
2018-02-10T18:02:31.710Z,11.30
2018-02-10T18:05:02.455Z,10.40
2018-02-10T18:07:33.315Z,13.10
2018-02-10T18:10:02.570Z,12.90
2018-02-10T18:12:32.580Z,11.80
2018-02-10T18:15:02.628Z,11.97
2018-02-10T18:17:32.629Z,10.10
2018-02-10T18:20:01.884Z,13.07
2018-02-10T18:22:31.150Z,11.20
2018-02-10T18:25:00.566Z,11.23
2018-02-10T18:27:29.785Z,10.47
2018-02-10T18:29:59.028Z,11.10
2018-02-10T18:32:29.070Z,11.83
2018-02-10T18:34:58.305Z,11.97
2018-02-10T18:37:27.556Z,12.03
2018-02-10T18:39:57.602Z,11.80
2018-02-10T18:42:26.841Z,10.00
2018-02-10T18:44:56.079Z,11.53
2018-02-10T18:47:25.457Z,11.80
2018-02-10T18:49:54.720Z,12.10
2018-02-10T18:52:24.027Z,10.70
2018-02-10T18:54:53.285Z,10.47
2018-02-10T18:57:23.463Z,11.00
2018-02-10T18:59:52.726Z,10.17
2018-02-10T19:02:22.161Z,12.30
2018-02-10T19:04:51.397Z,10.30
2018-02-10T19:07:20.656Z,9.80
2018-02-10T19:09:49.897Z,10.70
2018-02-10T19:12:19.925Z,14.20
2018-02-10T19:14:49.176Z,15.30
2018-02-10T19:17:18.459Z,12.20
2018-02-10T19:19:47.706Z,11.63
2018-02-10T19:22:16.974Z,10.93
2018-02-10T19:24:46.229Z,12.50
2018-02-10T19:27:15.538Z,9.87
2018-02-10T19:29:45.571Z,12.00
2018-02-10T19:32:14.826Z,12.10
2018-02-10T19:34:44.098Z,11.47
2018-02-10T19:37:13.644Z,11.33
2018-02-10T19:39:43.647Z,13.97
2018-02-10T19:42:12.934Z,11.47
2018-02-10T19:44:42.172Z,9.80
2018-02-10T19:47:11.463Z,11.77
2018-02-10T19:49:40.739Z,12.80
2018-02-10T19:52:09.976Z,12.27
2018-02-10T19:54:39.353Z,12.70
2018-02-10T19:57:08.586Z,13.30
2018-02-10T19:59:37.870Z,10.67
2018-02-10T20:02:07.097Z,12.00
2018-02-10T20:04:36.389Z,12.50
2018-02-10T20:07:05.625Z,12.93
2018-02-10T20:09:34.889Z,11.40
2018-02-10T20:12:04.422Z,11.20
2018-02-10T20:14:33.867Z,13.23
2018-02-10T20:17:03.131Z,12.10
2018-02-10T20:19:32.396Z,12.93
2018-02-10T20:22:01.669Z,10.63
2018-02-10T20:24:31.084Z,10.03
2018-02-10T20:27:00.343Z,12.80
2018-02-10T20:29:29.592Z,11.30
2018-02-10T20:31:58.948Z,10.90
2018-02-10T20:34:28.306Z,11.30
2018-02-10T20:36:58.332Z,12.07
2018-02-10T20:39:27.610Z,12.47
2018-02-10T20:41:56.873Z,12.40
2018-02-10T20:44:26.131Z,11.87
2018-02-10T20:46:56.966Z,11.67
2018-02-10T20:49:26.233Z,11.20
2018-02-10T20:51:55.482Z,11.30
2018-02-10T20:54:24.732Z,10.97
2018-02-10T20:56:54.202Z,12.67
2018-02-10T20:59:23.439Z,13.17
2018-02-10T21:01:52.702Z,12.40
2018-02-10T21:04:21.966Z,11.87
2018-02-10T21:06:51.977Z,12.10
2018-02-10T21:09:21.241Z,9.67
2018-02-10T21:11:51.179Z,13.90
2018-02-10T21:14:20.429Z,12.47
2018-02-10T21:16:49.725Z,12.13
2018-02-10T21:19:18.941Z,12.37
2018-02-10T21:21:48.211Z,11.90
2018-02-10T21:24:17.482Z,12.90
2018-02-10T21:26:46.738Z,17.17
2018-02-10T21:29:15.987Z,12.47
2018-02-10T21:31:45.289Z,13.47
2018-02-10T21:34:14.523Z,10.57
2018-02-10T21:36:43.807Z,12.20
2018-02-10T21:39:13.199Z,13.03
2018-02-10T21:41:43.431Z,9.87
2018-02-10T21:44:13.492Z,10.73
2018-02-10T21:46:42.765Z,9.93
2018-02-10T21:49:12.836Z,10.70
2018-02-10T21:51:42.092Z,11.83
2018-02-10T21:54:11.357Z,13.23
2018-02-10T21:56:41.378Z,10.87
2018-02-10T21:59:10.648Z,8.00
2018-02-10T22:01:39.881Z,11.17
2018-02-10T22:04:09.164Z,9.27
2018-02-10T22:06:38.479Z,10.13
2018-02-10T22:09:07.768Z,10.27
2018-02-10T22:11:37.018Z,8.73
2018-02-10T22:14:07.238Z,10.63
2018-02-10T22:16:36.463Z,7.57
2018-02-10T22:19:05.743Z,7.00
2018-02-10T22:21:35.830Z,6.77
2018-02-10T22:24:05.076Z,6.83
2018-02-10T22:26:34.331Z,7.10
2018-02-10T22:29:03.557Z,8.97
2018-02-10T22:31:32.824Z,6.80
2018-02-10T22:34:02.087Z,6.17
2018-02-10T22:36:31.341Z,6.70
2018-02-10T22:39:00.581Z,6.97
2018-02-10T22:41:29.824Z,6.90
2018-02-10T22:43:59.061Z,6.73
2018-02-10T22:46:28.360Z,5.93
2018-02-10T22:48:57.635Z,6.07
2018-02-10T22:51:26.877Z,6.07
2018-02-10T22:53:56.363Z,6.50
2018-02-10T22:56:26.397Z,6.43
2018-02-10T22:58:55.639Z,6.97
2018-02-10T23:01:24.885Z,6.33
2018-02-10T23:03:54.913Z,7.60
2018-02-10T23:06:24.187Z,6.23
2018-02-10T23:08:53.434Z,7.57
2018-02-10T23:11:22.685Z,5.60
2018-02-10T23:13:51.962Z,7.03
2018-02-10T23:16:21.420Z,6.40
2018-02-10T23:18:51.021Z,5.83
2018-02-10T23:21:20.425Z,7.30
2018-02-10T23:23:49.673Z,5.67
2018-02-10T23:26:19.773Z,6.83
2018-02-10T23:28:49.009Z,7.30
2018-02-10T23:31:18.258Z,6.67
2018-02-10T23:33:47.486Z,7.00
2018-02-10T23:36:16.743Z,7.03
2018-02-10T23:38:46.740Z,6.90
2018-02-10T23:41:16.001Z,5.20
2018-02-10T23:43:45.243Z,7.50
2018-02-10T23:46:14.549Z,7.57
2018-02-10T23:48:44.557Z,7.20
2018-02-10T23:51:13.794Z,6.60
2018-02-10T23:53:43.089Z,8.00
2018-02-10T23:56:12.340Z,8.50
2018-02-10T23:58:41.587Z,7.83
